Fort Good Hope, Canada
Current Conditions -  °F | °C
As of 7:00 AM on Friday 19 Dec 2014 (Local Time) from CYVQ Reporting Station
Light Snow Light Snow  
Wind Chill:   Ceiling: 3000
Heat Index:   Visibility: 20mi
Dew Point:   Wind: 3mph
Humidity: 78%   Direction: 110°ESE
Pressure: 29.83"   Gusts: NA
Location:  66.27°N, 128.63°W
Report Text: CYVQ 191400Z 11003KT 20SM -SN FEW018 BKN030 OVC090 M15/M18 A2983 RMK SC2SC5AC1 SLP111
Loading
Personal Weather Stations






























Interactive Weather Map New forecast layout! Learn more

10-Day Weather Forecast

Advertisements
Track Severe Weather on mobile